Terminal Aerodrome Forecast
Issued by NWS Boise, ID

Home | Current Version | Previous Version | Text Only | Print | Product List | Glossary On
Versions: 1 2 3 4 5 6 7 8 9 10 11 12 13 14 15 16 17 18 19 20 21 22 23 24 25 26 27 28 29 30 31 32 33 34 35 36 37 38 39 40 41 42 43 44 45 46 47 48 49
000
FTUS45 KBOI 211722
TAFBOI
TAF
KBOI 211722Z 2118/2218 VRB03KT 2SM BR BKN050 OVC080
     FM212100 13006KT 6SM HZ BKN050 OVC080
     FM220300 13010KT P6SM RA SCT020 OVC050
     FM220700 13013KT 4SM -RA BR OVC020=

USA.gov is the U.S. government's official web portal to all federal, state and local government web resources and services.